createdAt,value
2022-11-04T00:01:18.782Z,95746.31
2022-11-04T00:03:45.231Z,95754.84
2022-11-04T00:06:11.726Z,95758.09
2022-11-04T00:08:38.208Z,95740.31
2022-11-04T00:11:23.422Z,95741.53
2022-11-04T00:13:49.879Z,95750.06
2022-11-04T00:16:34.995Z,95760.56
2022-11-04T00:19:01.689Z,95753.28
2022-11-04T00:21:46.873Z,95764.78
2022-11-04T00:24:31.998Z,95770.69
2022-11-04T00:27:17.745Z,95781.16
2022-11-04T00:29:44.327Z,95768.63
2022-11-04T00:32:29.606Z,95782.78
2022-11-04T00:34:56.206Z,95776.09
2022-11-04T00:37:22.912Z,95775.91
2022-11-04T00:39:49.346Z,95783.16
2022-11-04T00:42:15.780Z,95786.56
2022-11-04T00:44:42.256Z,95803.09
2022-11-04T00:47:08.698Z,95802.06
2022-11-04T00:49:35.121Z,95817.22
2022-11-04T00:52:01.581Z,95805.72
2022-11-04T00:54:28.005Z,95815.81
2022-11-04T00:56:55.158Z,95818.63
2022-11-04T00:59:21.629Z,95819.25
2022-11-04T01:01:48.246Z,95827.13
2022-11-04T01:04:14.751Z,95821.25
2022-11-04T01:06:41.233Z,95828.94
2022-11-04T01:09:08.378Z,95841.03
2022-11-04T01:11:34.938Z,95837.41
2022-11-04T01:14:01.541Z,95845.47
2022-11-04T01:18:54.662Z,95842.66
2022-11-04T01:21:21.133Z,95842.06
2022-11-04T01:23:47.716Z,95847.53
2022-11-04T01:26:21.864Z,95863.09
2022-11-04T01:28:48.731Z,95851.41
2022-11-04T01:31:16.290Z,95866.72
2022-11-04T01:33:42.701Z,95860.28
2022-11-04T01:36:09.738Z,95871.59
2022-11-04T01:38:36.392Z,95857.69
2022-11-04T01:41:03.146Z,95858.72
2022-11-04T01:44:02.194Z,95872.63
2022-11-04T01:46:36.709Z,95853.06
2022-11-04T01:49:15.253Z,95862.53
2022-11-04T01:51:41.698Z,95868.59
2022-11-04T01:54:08.238Z,95859.31
2022-11-04T01:56:34.673Z,95860.94
2022-11-04T01:59:04.163Z,95866.78
2022-11-04T02:01:31.548Z,95881.78
2022-11-04T02:04:21.398Z,95873.66
2022-11-04T02:06:48.457Z,95867.03
2022-11-04T02:09:15.170Z,95875.91
2022-11-04T02:12:00.285Z,95872.66
2022-11-04T02:14:26.804Z,95874.50
2022-11-04T02:16:53.265Z,95886.63
2022-11-04T02:19:19.665Z,95874.66
2022-11-04T02:21:49.217Z,95889.81
2022-11-04T02:24:27.999Z,95882.13
2022-11-04T02:27:13.196Z,95867.38
2022-11-04T02:29:39.615Z,95866.34
2022-11-04T02:32:27.536Z,95865.53
2022-11-04T02:35:17.302Z,95858.25
2022-11-04T02:37:46.852Z,95872.78
2022-11-04T02:40:31.812Z,95870.34
2022-11-04T02:43:02.424Z,95864.66
2022-11-04T02:45:37.589Z,95873.13
2022-11-04T02:48:17.205Z,95862.63
2022-11-04T02:50:54.560Z,95884.84
2022-11-04T02:53:21.028Z,95883.22
2022-11-04T02:55:48.566Z,95879.66
2022-11-04T02:58:16.236Z,95880.88
2022-11-04T03:00:42.906Z,95897.00
2022-11-04T03:03:11.477Z,95880.22
2022-11-04T03:05:38.573Z,95885.66
2022-11-04T03:08:14.746Z,95892.16
2022-11-04T03:10:42.726Z,95890.53
2022-11-04T03:13:29.535Z,95887.28
2022-11-04T03:15:59.746Z,95889.53
2022-11-04T03:18:41.705Z,95896.63
2022-11-04T03:21:09.668Z,95896.63
2022-11-04T03:23:36.143Z,95902.47
2022-11-04T03:26:07.709Z,95900.25
2022-11-04T03:28:37.126Z,95903.88
2022-11-04T03:31:04.304Z,95904.69
2022-11-04T03:33:47.986Z,95905.91
2022-11-04T03:36:14.393Z,95909.00
2022-11-04T03:38:40.828Z,95905.91
2022-11-04T03:41:12.832Z,95907.16
2022-11-04T03:43:39.327Z,95908.78
2022-11-04T03:46:05.840Z,95910.38
2022-11-04T03:48:32.315Z,95907.94
2022-11-04T03:50:58.755Z,95911.38
2022-11-04T03:56:08.262Z,95904.00
2022-11-04T03:58:53.592Z,95904.75
2022-11-04T04:01:26.195Z,95903.38
2022-11-04T04:03:58.004Z,95906.16
2022-11-04T04:06:25.662Z,95920.69
2022-11-04T04:08:53.292Z,95920.69
2022-11-04T04:11:20.786Z,95916.66
2022-11-04T04:13:54.999Z,95905.34
2022-11-04T04:16:24.740Z,95897.06
2022-11-04T04:18:55.819Z,95896.84
2022-11-04T04:21:28.134Z,95900.50
2022-11-04T04:24:13.385Z,95906.94
2022-11-04T04:26:58.568Z,95902.09
2022-11-04T04:29:25.117Z,95914.53
2022-11-04T04:31:52.484Z,95914.50
2022-11-04T04:34:23.290Z,95910.06
2022-11-04T04:36:54.455Z,95932.47
2022-11-04T04:39:40.544Z,95937.00
2022-11-04T04:42:26.005Z,95943.47
2022-11-04T04:45:03.214Z,95949.53
2022-11-04T04:47:35.096Z,95947.03
2022-11-04T04:50:01.741Z,95938.16
2022-11-04T04:52:31.960Z,95949.91
2022-11-04T04:54:58.407Z,95952.13
2022-11-04T04:57:24.841Z,95964.91
2022-11-04T04:59:51.271Z,95968.31
2022-11-04T05:02:17.819Z,95967.41
2022-11-04T05:04:44.378Z,95967.66
2022-11-04T05:07:10.932Z,95968.50
2022-11-04T05:09:37.354Z,95967.72
2022-11-04T05:12:04.097Z,95960.59
2022-11-04T05:14:30.688Z,95971.00
2022-11-04T05:16:57.118Z,95968.69
2022-11-04T05:19:23.639Z,95968.44
2022-11-04T05:21:50.116Z,95969.69
2022-11-04T05:24:16.590Z,95967.06
2022-11-04T05:26:43.052Z,95974.22
2022-11-04T05:29:09.699Z,95962.13
2022-11-04T05:31:36.181Z,95956.03
2022-11-04T05:34:02.650Z,95958.34
2022-11-04T05:36:29.141Z,95948.88
2022-11-04T05:38:58.566Z,95951.50
2022-11-04T05:41:27.868Z,95944.63
2022-11-04T05:43:55.175Z,95955.22
2022-11-04T05:46:21.928Z,95952.63
2022-11-04T05:48:48.453Z,95965.09
2022-11-04T05:51:15.503Z,95958.59
2022-11-04T05:53:42.208Z,95954.88
2022-11-04T05:56:08.684Z,95956.06
2022-11-04T05:58:35.337Z,95965.47
2022-11-04T06:01:23.031Z,95968.41
2022-11-04T06:03:49.462Z,95966.53
2022-11-04T06:06:15.909Z,95967.53
2022-11-04T06:08:45.194Z,95971.47
2022-11-04T06:11:11.892Z,95979.44
2022-11-04T06:13:38.383Z,95989.53
2022-11-04T06:16:04.906Z,95992.28
2022-11-04T06:18:31.369Z,96011.31
2022-11-04T06:21:13.081Z,96006.56
2022-11-04T06:23:39.993Z,96013.59
2022-11-04T06:26:06.461Z,96004.75
2022-11-04T06:28:32.950Z,96007.72
2022-11-04T06:30:59.986Z,96003.13
2022-11-04T06:33:26.543Z,96000.94
2022-11-04T06:35:53.018Z,95999.94
2022-11-04T06:38:19.463Z,96006.81
2022-11-04T06:40:45.871Z,96005.19
2022-11-04T06:43:12.353Z,96015.91
2022-11-04T06:45:38.804Z,96022.84
2022-11-04T06:48:05.432Z,96026.97
2022-11-04T06:50:31.976Z,96030.66
2022-11-04T06:52:58.563Z,96040.03
2022-11-04T06:55:25.081Z,96044.34
2022-11-04T06:57:51.553Z,96049.34
2022-11-04T07:00:18.315Z,96047.63
2022-11-04T07:02:44.822Z,96056.72
2022-11-04T07:05:12.243Z,96051.53
2022-11-04T07:07:38.711Z,96064.06
2022-11-04T07:10:05.466Z,96064.34
2022-11-04T07:12:31.894Z,96069.81
2022-11-04T07:14:58.446Z,96062.69
2022-11-04T07:17:24.986Z,96067.97
2022-11-04T07:19:51.420Z,96069.19
2022-11-04T07:22:17.843Z,96074.81
2022-11-04T07:24:44.597Z,96082.88
2022-11-04T07:27:11.032Z,96090.78
2022-11-04T07:29:37.463Z,96092.03
2022-11-04T07:32:04.364Z,96087.84
2022-11-04T07:34:30.805Z,96088.31
2022-11-04T07:36:57.202Z,96091.56
2022-11-04T07:39:23.700Z,96094.41
2022-11-04T07:41:50.136Z,96096.47
2022-11-04T07:44:16.651Z,96095.31
2022-11-04T07:46:43.099Z,96100.25
2022-11-04T07:49:09.560Z,96098.69
2022-11-04T07:51:35.955Z,96097.50
2022-11-04T07:54:02.476Z,96105.81
2022-11-04T07:56:28.936Z,96103.28
2022-11-04T07:58:55.394Z,96107.34
2022-11-04T08:01:23.469Z,96106.16
2022-11-04T08:03:50.422Z,96098.91
2022-11-04T08:06:17.270Z,96101.94
2022-11-04T08:08:43.990Z,96103.38
2022-11-04T08:11:17.751Z,96107.88
2022-11-04T08:13:44.939Z,96111.50
2022-11-04T08:16:13.373Z,96106.28
2022-11-04T08:18:40.180Z,96112.81
2022-11-04T08:21:07.088Z,96108.81
2022-11-04T08:23:34.327Z,96111.03
2022-11-04T08:26:01.087Z,96111.91
2022-11-04T08:28:27.675Z,96118.38
2022-11-04T08:30:58.472Z,96106.97
2022-11-04T08:33:25.611Z,96103.28
2022-11-04T08:35:52.772Z,96109.69
2022-11-04T08:38:19.313Z,96108.28
2022-11-04T08:40:45.756Z,96113.13
2022-11-04T08:43:12.403Z,96121.72
2022-11-04T08:45:42.943Z,96128.56
2022-11-04T08:48:09.930Z,96127.19
2022-11-04T08:50:36.696Z,96116.38
2022-11-04T08:53:04.212Z,96104.69
2022-11-04T08:55:31.147Z,96105.47
2022-11-04T08:57:57.730Z,96101.78
2022-11-04T09:00:24.261Z,96089.78
2022-11-04T09:02:50.748Z,96105.00
2022-11-04T09:05:17.254Z,96112.03
2022-11-04T09:07:43.653Z,96099.66
2022-11-04T09:10:10.944Z,96092.03
2022-11-04T09:12:37.379Z,96082.50
2022-11-04T09:15:05.569Z,96092.66
2022-11-04T09:17:32.020Z,96087.28
2022-11-04T09:19:58.466Z,96084.56
2022-11-04T09:22:24.885Z,96084.72
2022-11-04T09:24:51.394Z,96088.78
2022-11-04T09:27:18.048Z,96092.31
2022-11-04T09:29:44.592Z,96095.34
2022-11-04T09:32:11.052Z,96109.63
2022-11-04T09:34:37.482Z,96105.84
2022-11-04T09:37:03.895Z,96096.84
2022-11-04T09:39:30.338Z,96093.44
2022-11-04T09:42:00.894Z,96081.19
2022-11-04T09:45:14.935Z,96095.00
2022-11-04T09:47:32.862Z,96099.38
2022-11-04T09:49:59.427Z,96095.09
2022-11-04T09:52:26.966Z,96095.59
2022-11-04T09:54:53.600Z,96100.69
2022-11-04T09:57:20.225Z,96089.22
2022-11-04T09:59:47.137Z,96100.47
2022-11-04T10:02:32.301Z,96098.22
2022-11-04T10:05:14.236Z,96096.59
2022-11-04T10:07:49.826Z,96099.22
2022-11-04T10:10:19.450Z,96106.50
2022-11-04T10:12:54.830Z,96112.72
2022-11-04T10:15:36.710Z,96115.19
2022-11-04T10:18:06.815Z,96122.28
2022-11-04T10:20:33.235Z,96120.66
2022-11-04T10:22:59.697Z,96122.44
2022-11-04T10:25:31.024Z,96129.06
2022-11-04T10:27:57.681Z,96129.06
2022-11-04T10:30:24.838Z,96127.94
2022-11-04T10:33:09.952Z,96127.44
2022-11-04T10:35:39.649Z,96139.91
2022-11-04T10:38:26.306Z,96138.19
2022-11-04T10:40:53.857Z,96144.16
2022-11-04T10:43:40.547Z,96142.41
2022-11-04T10:46:07.036Z,96127.41
2022-11-04T10:48:38.852Z,96131.72
2022-11-04T10:51:05.326Z,96137.78
2022-11-04T10:53:32.566Z,96142.81
2022-11-04T10:55:59.095Z,96140.47
2022-11-04T10:58:26.322Z,96150.19
2022-11-04T11:00:52.959Z,96150.25
2022-11-04T11:03:25.037Z,96156.69
2022-11-04T11:05:52.405Z,96165.34
2022-11-04T11:08:31.919Z,96159.56
2022-11-04T11:10:58.380Z,96161.25
2022-11-04T11:13:28.181Z,96167.19
2022-11-04T11:16:04.758Z,96169.91
2022-11-04T11:18:31.267Z,96161.72
2022-11-04T11:21:07.835Z,96170.91
2022-11-04T11:23:38.384Z,96173.41
2022-11-04T11:26:06.038Z,96173.75
2022-11-04T11:28:38.078Z,96169.97
2022-11-04T11:31:11.898Z,96162.19
2022-11-04T11:33:38.790Z,96158.41
2022-11-04T11:36:12.260Z,96161.75
2022-11-04T11:38:40.121Z,96157.59
2022-11-04T11:41:29.238Z,96160.84
2022-11-04T11:43:56.290Z,96159.69
2022-11-04T11:46:23.380Z,96159.03
2022-11-04T11:48:51.067Z,96157.78
2022-11-04T11:51:30.572Z,96164.97
2022-11-04T11:54:07.856Z,96163.16
2022-11-04T11:57:07.392Z,96157.22
2022-11-04T12:02:48.070Z,96162.38
2022-11-04T12:11:03.149Z,96175.50
2022-11-04T12:13:42.926Z,96177.63
2022-11-04T12:16:15.353Z,96170.84
2022-11-04T12:18:41.792Z,96172.53
2022-11-04T12:21:21.479Z,96174.63
2022-11-04T12:23:55.099Z,96166.63
2022-11-04T12:26:37.073Z,96168.34
2022-11-04T12:29:03.465Z,96176.28
2022-11-04T12:31:39.971Z,96177.47
2022-11-04T12:34:06.350Z,96174.63
2022-11-04T12:36:45.135Z,96183.56
2022-11-04T12:39:15.564Z,96188.06
2022-11-04T12:42:06.897Z,96189.66
2022-11-04T12:44:38.563Z,96195.38
2022-11-04T12:47:05.022Z,96194.59
2022-11-04T12:50:04.096Z,96190.94
2022-11-04T12:52:30.503Z,96187.63
2022-11-04T12:55:11.645Z,96181.47
2022-11-04T12:57:58.538Z,96184.66
2022-11-04T13:00:27.241Z,96187.91
2022-11-04T13:02:57.976Z,96187.56
2022-11-04T13:05:36.703Z,96190.09
2022-11-04T13:08:03.102Z,96196.66
2022-11-04T13:10:40.434Z,96198.34
2022-11-04T13:13:07.100Z,96201.69
2022-11-04T13:15:36.078Z,96205.56
2022-11-04T13:18:05.161Z,96208.03
2022-11-04T13:20:36.793Z,96205.84
2022-11-04T13:23:04.636Z,96216.22
2022-11-04T13:25:33.757Z,96213.38
2022-11-04T13:28:00.306Z,96220.50
2022-11-04T13:30:29.885Z,96221.72
2022-11-04T13:33:02.619Z,96228.88
2022-11-04T13:35:49.992Z,96234.16
2022-11-04T13:38:22.678Z,96226.22
2022-11-04T13:40:52.710Z,96233.53
2022-11-04T13:43:38.432Z,96232.69
2022-11-04T13:46:26.338Z,96228.78
2022-11-04T13:48:54.491Z,96231.38
2022-11-04T13:51:20.982Z,96239.78
2022-11-04T13:53:52.090Z,96240.53
2022-11-04T13:56:33.470Z,96241.72
2022-11-04T13:59:02.049Z,96246.34
2022-11-04T14:01:30.467Z,96246.63
2022-11-04T14:04:18.049Z,96242.63
2022-11-04T14:06:47.846Z,96235.94
2022-11-04T14:09:32.574Z,96253.63
2022-11-04T14:12:14.191Z,96267.25
2022-11-04T14:14:41.257Z,96265.00
2022-11-04T14:17:26.465Z,96270.50
2022-11-04T14:19:56.097Z,96269.03
2022-11-04T14:22:30.282Z,96259.09
2022-11-04T14:25:01.460Z,96266.19
2022-11-04T14:27:31.027Z,96266.41
2022-11-04T14:29:57.492Z,96268.25
2022-11-04T14:32:25.628Z,96281.25
2022-11-04T14:34:59.393Z,96284.88
2022-11-04T14:37:30.917Z,96287.94
2022-11-04T14:39:58.284Z,96284.09
2022-11-04T14:42:43.444Z,96290.00
2022-11-04T14:45:09.986Z,96288.00
2022-11-04T14:47:37.990Z,96290.22
2022-11-04T14:50:07.616Z,96296.09
2022-11-04T14:52:54.199Z,96294.91
2022-11-04T14:55:22.154Z,96312.75
2022-11-04T14:57:52.952Z,96305.84
2022-11-04T15:00:28.271Z,96309.91
2022-11-04T15:03:00.908Z,96316.00
2022-11-04T15:05:28.385Z,96321.66
2022-11-04T15:07:54.874Z,96324.91
2022-11-04T15:10:21.346Z,96334.63
2022-11-04T15:12:50.809Z,96340.72
2022-11-04T15:15:25.553Z,96346.75
2022-11-04T15:17:51.923Z,96352.63
2022-11-04T15:20:30.484Z,96356.44
2022-11-04T15:22:58.665Z,96350.34
2022-11-04T15:25:25.237Z,96357.63
2022-11-04T15:27:51.699Z,96354.13
2022-11-04T15:30:22.834Z,96364.66
2022-11-04T15:32:53.188Z,96361.97
2022-11-04T15:35:19.633Z,96372.09
2022-11-04T15:37:46.235Z,96373.50
2022-11-04T15:40:13.686Z,96372.88
2022-11-04T15:42:40.618Z,96369.84
2022-11-04T15:45:37.299Z,96383.56
2022-11-04T15:48:22.424Z,96389.00
2022-11-04T15:51:06.534Z,96388.97
2022-11-04T15:53:47.069Z,96393.31
2022-11-04T15:56:14.957Z,96400.38
2022-11-04T15:58:41.739Z,96402.19
2022-11-04T16:01:08.220Z,96402.19
2022-11-04T16:03:34.678Z,96402.56
2022-11-04T16:06:05.314Z,96415.09
2022-11-04T16:08:31.979Z,96414.28
2022-11-04T16:11:08.537Z,96426.44
2022-11-04T16:13:35.136Z,96420.72
2022-11-04T16:16:19.611Z,96423.75
2022-11-04T16:18:50.924Z,96430.38
2022-11-04T16:21:20.474Z,96428.75
2022-11-04T16:23:47.872Z,96428.34
2022-11-04T16:26:14.326Z,96434.78
2022-11-04T16:28:40.788Z,96427.91
2022-11-04T16:31:08.538Z,96428.72
2022-11-04T16:33:35.049Z,96435.78
2022-11-04T16:36:01.819Z,96430.72
2022-11-04T16:38:28.264Z,96434.16
2022-11-04T16:40:54.704Z,96437.63
2022-11-04T16:43:21.621Z,96444.03
2022-11-04T16:45:53.558Z,96445.81
2022-11-04T16:48:20.501Z,96458.34
2022-11-04T16:50:47.131Z,96456.09
2022-11-04T16:53:13.678Z,96462.53
2022-11-04T16:55:40.586Z,96473.88
2022-11-04T16:58:07.014Z,96466.59
2022-11-04T17:00:33.533Z,96471.63
2022-11-04T17:03:00.711Z,96468.09
2022-11-04T17:05:27.508Z,96476.94
2022-11-04T17:07:57.677Z,96475.50
2022-11-04T17:10:29.919Z,96474.47
2022-11-04T17:12:56.625Z,96481.38
2022-11-04T17:15:23.034Z,96483.00
2022-11-04T17:17:49.457Z,96483.00
2022-11-04T17:20:17.657Z,96483.00
2022-11-04T17:22:44.510Z,96484.38
2022-11-04T17:25:14.307Z,96483.09
2022-11-04T17:27:41.244Z,96481.22
2022-11-04T17:30:08.010Z,96486.03
2022-11-04T17:32:34.437Z,96486.59
2022-11-04T17:35:00.977Z,96492.75
2022-11-04T17:37:27.479Z,96492.59
2022-11-04T17:39:53.883Z,96492.06
2022-11-04T17:42:39.160Z,96497.97
2022-11-04T17:45:05.694Z,96505.03
2022-11-04T17:47:35.243Z,96507.94
2022-11-04T17:50:01.874Z,96520.03
2022-11-04T17:52:28.343Z,96520.31
2022-11-04T17:54:54.744Z,96526.25
2022-11-04T17:57:21.183Z,96529.16
2022-11-04T17:59:47.609Z,96531.34
2022-11-04T18:02:14.130Z,96535.16
2022-11-04T18:04:40.660Z,96531.63
2022-11-04T18:07:07.074Z,96532.81
2022-11-04T18:09:35.074Z,96537.34
2022-11-04T18:12:20.310Z,96543.78
2022-11-04T18:14:46.736Z,96540.34
2022-11-04T18:17:13.203Z,96549.38
2022-11-04T18:19:39.615Z,96553.81
2022-11-04T18:22:06.221Z,96552.19
2022-11-04T18:24:32.728Z,96550.75
2022-11-04T18:27:02.126Z,96550.63
2022-11-04T18:29:28.501Z,96555.44
2022-11-04T18:31:55.082Z,96563.41
2022-11-04T18:34:21.509Z,96554.31
2022-11-04T18:36:48.413Z,96558.47
2022-11-04T18:39:15.695Z,96560.16
2022-11-04T18:41:42.406Z,96564.22
2022-11-04T18:44:09.459Z,96564.97
2022-11-04T18:46:35.924Z,96575.81
2022-11-04T18:49:02.409Z,96576.81
2022-11-04T18:51:28.972Z,96578.28
2022-11-04T18:53:55.440Z,96577.09
2022-11-04T18:56:22.477Z,96577.09
2022-11-04T18:58:49.042Z,96576.75
2022-11-04T19:01:20.376Z,96578.03
2022-11-04T19:03:47.044Z,96577.38
2022-11-04T19:06:15.519Z,96580.00
2022-11-04T19:08:46.472Z,96579.47
2022-11-04T19:11:17.629Z,96585.03
2022-11-04T19:13:44.195Z,96587.56
2022-11-04T19:16:11.743Z,96589.50
2022-11-04T19:18:38.416Z,96588.34
2022-11-04T19:21:05.819Z,96596.66
2022-11-04T19:23:32.693Z,96593.69
2022-11-04T19:26:02.152Z,96598.09
2022-11-04T19:28:37.568Z,96597.28
2022-11-04T19:31:11.708Z,96605.97
2022-11-04T19:33:38.485Z,96612.03
2022-11-04T19:36:05.572Z,96608.88
2022-11-04T19:38:32.064Z,96611.16
2022-11-04T19:41:02.200Z,96615.88
2022-11-04T19:43:28.607Z,96618.78
2022-11-04T19:45:57.710Z,96625.47
2022-11-04T19:48:26.465Z,96626.03
2022-11-04T19:50:52.913Z,96623.94
2022-11-04T19:53:19.329Z,96627.78
2022-11-04T19:55:53.086Z,96634.91
2022-11-04T19:58:19.562Z,96633.63
2022-11-04T20:00:47.225Z,96646.22
2022-11-04T20:03:14.147Z,96646.06
2022-11-04T20:05:41.560Z,96649.03
2022-11-04T20:08:08.752Z,96653.44
2022-11-04T20:10:37.098Z,96652.94
2022-11-04T20:13:22.235Z,96660.97
2022-11-04T20:15:48.638Z,96666.84
2022-11-04T20:18:15.024Z,96659.66
2022-11-04T20:20:41.474Z,96675.13
2022-11-04T20:23:08.916Z,96674.19
2022-11-04T20:25:35.402Z,96677.66
2022-11-04T20:28:02.295Z,96672.75
2022-11-04T20:30:28.747Z,96670.41
2022-11-04T20:32:55.186Z,96665.69
2022-11-04T20:35:21.738Z,96671.41
2022-11-04T20:37:48.166Z,96673.56
2022-11-04T20:40:14.654Z,96674.72
2022-11-04T20:42:47.793Z,96679.63
2022-11-04T20:45:15.146Z,96687.31
2022-11-04T20:47:42.148Z,96693.19
2022-11-04T20:50:09.771Z,96698.63
2022-11-04T20:52:37.276Z,96706.66
2022-11-04T20:55:06.327Z,96707.28
2022-11-04T20:57:33.897Z,96715.81
2022-11-04T21:00:00.459Z,96714.63
2022-11-04T21:02:27.036Z,96717.25
2022-11-04T21:04:53.608Z,96712.19
2022-11-04T21:07:20.183Z,96711.72
2022-11-04T21:09:46.673Z,96714.69
2022-11-04T21:12:13.167Z,96717.50
2022-11-04T21:14:39.575Z,96720.94
2022-11-04T21:17:06.024Z,96737.31
2022-11-04T21:19:32.710Z,96736.78
2022-11-04T21:21:59.202Z,96742.50
2022-11-04T21:24:25.602Z,96747.75
2022-11-04T21:26:52.029Z,96748.28
2022-11-04T21:29:19.706Z,96753.88
2022-11-04T21:31:46.776Z,96747.16
2022-11-04T21:34:13.376Z,96755.53
2022-11-04T21:36:40.091Z,96762.75
2022-11-04T21:39:06.552Z,96761.47
2022-11-04T21:41:37.393Z,96772.94
2022-11-04T21:44:05.682Z,96777.19
2022-11-04T21:46:32.746Z,96788.16
2022-11-04T21:48:59.272Z,96782.56
2022-11-04T21:51:28.897Z,96789.44
2022-11-04T21:53:56.252Z,96799.63
2022-11-04T21:56:23.824Z,96794.72
2022-11-04T21:58:51.035Z,96797.06
2022-11-04T22:01:18.770Z,96807.38
2022-11-04T22:03:48.896Z,96803.94
2022-11-04T22:06:15.325Z,96803.47
2022-11-04T22:08:46.081Z,96798.34
2022-11-04T22:11:16.820Z,96798.03
2022-11-04T22:13:43.274Z,96798.69
2022-11-04T22:16:10.698Z,96797.00
2022-11-04T22:18:37.119Z,96803.69
2022-11-04T22:21:05.449Z,96813.97
2022-11-04T22:23:33.372Z,96812.63
2022-11-04T22:26:03.590Z,96812.13
2022-11-04T22:28:30.020Z,96814.41
2022-11-04T22:30:56.477Z,96809.16
2022-11-04T22:33:26.237Z,96809.97
2022-11-04T22:35:56.907Z,96808.34
2022-11-04T22:38:23.364Z,96817.84
2022-11-04T22:40:57.165Z,96813.94
2022-11-04T22:43:24.906Z,96817.88
2022-11-04T22:45:52.064Z,96818.56
2022-11-04T22:48:18.796Z,96822.16
2022-11-04T22:50:45.529Z,96817.06
2022-11-04T22:53:12.441Z,96812.34
2022-11-04T22:55:38.957Z,96819.44
2022-11-04T22:58:05.431Z,96826.66
2022-11-04T23:00:31.864Z,96830.16
2022-11-04T23:02:58.548Z,96833.44
2022-11-04T23:05:27.766Z,96832.78
2022-11-04T23:07:54.425Z,96828.34
2022-11-04T23:10:39.607Z,96832.47
2022-11-04T23:13:24.616Z,96820.19
2022-11-04T23:16:09.788Z,96828.53
2022-11-04T23:18:42.166Z,96828.19
2022-11-04T23:21:31.410Z,96833.75
2022-11-04T23:24:16.558Z,96833.41
2022-11-04T23:26:43.117Z,96828.81
2022-11-04T23:29:28.202Z,96836.34
2022-11-04T23:31:54.651Z,96833.03
2022-11-04T23:34:39.810Z,96846.47
2022-11-04T23:37:12.205Z,96850.03
2022-11-04T23:39:39.193Z,96848.59
2022-11-04T23:42:18.103Z,96837.63
2022-11-04T23:45:12.894Z,96847.13
2022-11-04T23:47:58.674Z,96849.47
2022-11-04T23:50:44.226Z,96840.59
2022-11-04T23:53:32.952Z,96847.31
2022-11-04T23:56:18.029Z,96850.56
2022-11-04T23:59:03.073Z,96854.53
